Time;durP1;ratioP1;P1;durP2;ratioP2;P2;SDS_P1;SDS_P2;PMS_P1;PMS_P2;Temp;Humidity;BMP_temperature;BMP_pressure;BME280_temperature;BME280_humidity;BME280_pressure;Samples;Min_cycle;Max_cycle;Signal;HPM_P1;HPM_P2
2022/12/16 00:02:16;;;;;;;5.80;5.30;;;22.70;54.80;;;;;;5049010;28;20291;-36
2022/12/16 00:04:42;;;;;;;5.13;4.72;;;22.80;54.70;;;;;;5050051;28;20227;-38
2022/12/16 00:07:09;;;;;;;6.45;5.85;;;22.80;54.60;;;;;;5051146;28;20195;-36
2022/12/16 00:09:36;;;;;;;4.85;4.40;;;22.90;54.60;;;;;;5053919;28;20202;-40
2022/12/16 00:12:04;;;;;;;5.88;5.38;;;22.80;54.50;;;;;;5040917;28;20195;-40
2022/12/16 00:14:31;;;;;;;5.30;4.80;;;22.80;54.50;;;;;;5053202;28;20723;-35
2022/12/16 00:16:58;;;;;;;6.15;5.50;;;22.90;54.50;;;;;;5050587;28;20215;-36
2022/12/16 00:19:25;;;;;;;6.10;5.50;;;22.90;54.40;;;;;;5053519;28;20223;-39
2022/12/16 00:21:51;;;;;;;5.15;4.75;;;22.90;54.90;;;;;;5051168;28;20243;-36
2022/12/16 00:24:21;;;;;;;6.05;5.40;;;22.90;54.30;;;;;;5053447;28;20227;-38
2022/12/16 00:26:48;;;;;;;8.07;5.13;;;22.80;54.30;;;;;;5048869;28;20208;-34
2022/12/16 00:29:16;;;;;;;5.60;5.10;;;22.90;54.30;;;;;;5049579;28;20200;-40
2022/12/16 00:31:46;;;;;;;7.97;5.93;;;22.90;54.30;;;;;;5051892;28;20190;-36
2022/12/16 00:34:13;;;;;;;5.30;4.85;;;22.90;54.30;;;;;;5044492;28;20207;-38
2022/12/16 00:36:40;;;;;;;6.13;5.25;;;22.90;54.30;;;;;;5060863;28;20207;-36
2022/12/16 00:39:06;;;;;;;4.93;4.53;;;22.90;54.30;;;;;;5057348;28;20192;-38
2022/12/16 00:41:33;;;;;;;5.50;5.00;;;22.80;54.10;;;;;;5044803;28;20541;-40
2022/12/16 00:44:00;;;;;;;5.80;5.25;;;22.80;54.70;;;;;;5047605;28;20208;-38
2022/12/16 00:46:28;;;;;;;6.70;6.10;;;22.90;54.30;;;;;;5046952;28;20196;-34
2022/12/16 00:48:55;;;;;;;8.52;4.60;;;22.80;54.10;;;;;;5060154;28;20283;-37
2022/12/16 00:51:22;;;;;;;5.35;4.85;;;22.90;54.20;;;;;;5049901;28;20219;-38
2022/12/16 00:53:48;;;;;;;6.43;5.82;;;22.80;54.10;;;;;;5052652;28;20657;-34
2022/12/16 00:56:17;;;;;;;8.30;7.57;;;22.80;54.10;;;;;;5052057;28;20196;-35
2022/12/16 00:58:44;;;;;;;5.38;4.97;;;22.90;54.10;;;;;;5051647;28;20410;-35
2022/12/16 01:01:11;;;;;;;6.05;5.45;;;22.80;54.10;;;;;;5049476;28;20200;-38
2022/12/16 01:03:39;;;;;;;5.90;5.40;;;22.80;54.10;;;;;;5051580;28;20715;-38
2022/12/16 01:06:11;;;;;;;5.63;5.13;;;22.80;54.10;;;;;;5045437;28;20715;-38
2022/12/16 01:08:37;;;;;;;5.68;5.18;;;22.80;54.10;;;;;;5052376;28;20198;-35
2022/12/16 01:11:05;;;;;;;6.18;5.57;;;22.90;54.10;;;;;;5049330;28;20208;-36
2022/12/16 01:13:32;;;;;;;6.10;5.50;;;22.90;54.10;;;;;;5047579;28;20686;-35
2022/12/16 01:16:00;;;;;;;7.07;6.38;;;22.80;54.00;;;;;;5046991;28;20215;-39
2022/12/16 01:18:27;;;;;;;7.05;5.28;;;22.80;54.10;;;;;;5053505;28;20219;-40
2022/12/16 01:21:02;;;;;;;6.10;5.60;;;22.80;54.00;;;;;;5050362;28;20245;-40
2022/12/16 01:23:29;;;;;;;6.07;5.57;;;22.80;54.00;;;;;;5051580;28;20195;-38
2022/12/16 01:25:59;;;;;;;5.30;4.90;;;22.80;54.00;;;;;;5051527;28;20217;-37
2022/12/16 01:28:26;;;;;;;6.45;5.90;;;22.80;54.10;;;;;;5040683;28;20200;-35
2022/12/16 01:30:56;;;;;;;6.53;5.72;;;22.80;54.00;;;;;;5035618;28;20683;-41
2022/12/16 01:33:23;;;;;;;5.88;5.28;;;22.80;54.00;;;;;;5051392;28;20281;-40
2022/12/16 01:35:50;;;;;;;4.78;4.40;;;22.80;53.90;;;;;;5050135;28;20191;-38
2022/12/16 01:38:18;;;;;;;6.55;5.95;;;22.80;53.80;;;;;;5054101;28;20200;-40
2022/12/16 01:40:44;;;;;;;5.47;4.95;;;22.90;54.00;;;;;;5041025;28;20565;-41
2022/12/16 01:43:13;;;;;;;6.22;5.72;;;22.80;53.90;;;;;;5051738;28;20203;-37
2022/12/16 01:45:40;;;;;;;6.65;5.55;;;22.80;53.80;;;;;;5047217;28;20223;-37
2022/12/16 01:48:19;;;;;;;5.95;5.45;;;22.80;53.80;;;;;;5051601;28;20199;-35
2022/12/16 01:50:46;;;;;;;5.82;4.53;;;22.90;54.00;;;;;;5043732;28;20188;-39
2022/12/16 01:53:14;;;;;;;5.22;4.82;;;22.80;53.90;;;;;;5042281;28;20203;-40
2022/12/16 01:55:48;;;;;;;5.72;5.13;;;22.80;53.80;;;;;;5055231;28;20570;-38
2022/12/16 01:58:21;;;;;;;6.22;5.63;;;22.80;54.40;;;;;;5040912;28;20206;-39
2022/12/16 02:00:48;;;;;;;6.18;5.68;;;22.90;53.90;;;;;;5048985;28;20204;-35
2022/12/16 02:03:15;;;;;;;6.50;5.90;;;22.90;53.70;;;;;;5050373;28;20214;-37
2022/12/16 02:05:44;;;;;;;6.35;5.75;;;22.90;53.80;;;;;;5047635;28;20229;-33
2022/12/16 02:08:13;;;;;;;6.07;5.55;;;22.90;53.80;;;;;;5049851;28;20191;-36
2022/12/16 02:11:01;;;;;;;6.70;5.72;;;22.90;53.80;;;;;;5048132;28;20195;-34
2022/12/16 02:13:35;;;;;;;7.15;6.45;;;22.90;53.80;;;;;;5049077;28;20218;-41
2022/12/16 02:16:10;;;;;;;6.35;5.85;;;22.90;53.70;;;;;;5046848;28;20203;-39
2022/12/16 02:18:46;;;;;;;6.03;5.50;;;22.90;53.80;;;;;;5050190;28;20476;-39
2022/12/16 02:21:27;;;;;;;6.60;6.00;;;22.90;53.70;;;;;;5049729;28;20198;-37
2022/12/16 02:24:36;;;;;;;6.32;5.82;;;22.90;53.80;;;;;;5045939;28;20269;-36
2022/12/16 02:27:36;;;;;;;7.00;6.30;;;22.80;54.20;;;;;;5035825;28;20197;-38
2022/12/16 02:30:32;;;;;;;7.45;6.75;;;22.80;53.80;;;;;;5033317;28;20683;-37
2022/12/16 02:33:09;;;;;;;6.95;6.30;;;22.80;53.80;;;;;;5044658;28;20548;-35
2022/12/16 02:35:44;;;;;;;5.90;5.40;;;22.80;53.80;;;;;;5045025;28;20196;-39
2022/12/16 02:38:22;;;;;;;7.30;6.60;;;22.80;54.30;;;;;;5049741;28;20229;-37
2022/12/16 02:40:55;;;;;;;7.10;6.50;;;22.80;53.70;;;;;;5046473;28;20218;-36
2022/12/16 02:43:35;;;;;;;6.45;5.85;;;22.80;53.70;;;;;;5040298;28;20198;-38
2022/12/16 02:46:06;;;;;;;5.65;5.25;;;22.80;53.70;;;;;;5039918;28;20236;-40
2022/12/16 02:48:32;;;;;;;6.22;5.63;;;22.80;53.70;;;;;;5045318;28;20196;-33
2022/12/16 02:50:59;;;;;;;6.70;6.10;;;22.80;53.70;;;;;;5047621;28;20192;-37
2022/12/16 02:53:26;;;;;;;6.57;5.97;;;22.80;53.80;;;;;;5051935;28;20196;-38
2022/12/16 02:56:00;;;;;;;6.93;6.32;;;22.70;53.70;;;;;;5039879;28;20857;-39
2022/12/16 02:58:32;;;;;;;7.53;6.82;;;22.80;53.80;;;;;;5046504;28;20238;-37
2022/12/16 03:01:07;;;;;;;6.72;6.13;;;22.80;53.70;;;;;;5035111;28;20203;-41
2022/12/16 03:03:38;;;;;;;6.57;6.00;;;22.80;53.70;;;;;;5056727;28;20202;-37
2022/12/16 03:06:07;;;;;;;6.47;5.82;;;22.80;53.70;;;;;;5045272;28;20220;-36
2022/12/16 03:08:37;;;;;;;7.13;6.43;;;22.70;53.60;;;;;;5044673;28;20203;-39
2022/12/16 03:11:07;;;;;;;7.28;6.55;;;22.80;53.70;;;;;;5046302;28;20294;-35
2022/12/16 03:13:37;;;;;;;6.70;6.15;;;22.80;53.60;;;;;;5047133;28;20604;-35
2022/12/16 03:16:09;;;;;;;7.65;6.80;;;22.80;53.70;;;;;;5040865;28;20216;-35
2022/12/16 03:18:40;;;;;;;5.93;5.43;;;22.80;53.60;;;;;;5051255;28;20677;-36
2022/12/16 03:21:09;;;;;;;5.88;5.35;;;22.80;53.60;;;;;;5052834;28;20218;-40
2022/12/16 03:23:41;;;;;;;6.57;5.95;;;22.80;53.60;;;;;;5047145;28;20212;-36
2022/12/16 03:26:14;;;;;;;7.78;7.18;;;22.80;53.50;;;;;;5042170;28;20574;-39
2022/12/16 03:28:48;;;;;;;6.60;6.00;;;22.80;53.60;;;;;;5052545;28;20211;-38
2022/12/16 03:31:26;;;;;;;5.63;5.15;;;22.80;53.50;;;;;;5053128;28;20606;-38
2022/12/16 03:33:57;;;;;;;6.15;5.65;;;22.90;53.50;;;;;;5050439;28;20210;-38
2022/12/16 03:36:26;;;;;;;7.20;6.50;;;22.90;53.50;;;;;;5043061;28;20564;-37
2022/12/16 03:38:55;;;;;;;7.30;6.70;;;22.90;53.50;;;;;;5059188;28;20459;-37
2022/12/16 03:41:24;;;;;;;6.63;6.03;;;22.90;53.40;;;;;;5044196;28;20189;-37
2022/12/16 03:43:51;;;;;;;7.28;6.40;;;22.90;53.50;;;;;;5054054;28;20211;-32
2022/12/16 03:46:19;;;;;;;6.35;5.85;;;22.90;53.50;;;;;;5052229;28;20553;-37
2022/12/16 03:48:47;;;;;;;6.95;6.30;;;22.90;53.50;;;;;;5053330;28;20194;-38
2022/12/16 03:51:14;;;;;;;7.00;6.43;;;22.90;53.30;;;;;;5046536;28;20686;-36
2022/12/16 03:53:41;;;;;;;6.40;5.78;;;22.90;53.50;;;;;;5050081;28;20563;-40
2022/12/16 03:56:08;;;;;;;6.88;6.18;;;22.90;53.50;;;;;;5055352;28;20205;-39
2022/12/16 03:58:36;;;;;;;5.70;5.30;;;22.90;53.50;;;;;;5052103;28;20200;-36
2022/12/16 04:01:03;;;;;;;6.55;5.95;;;22.90;53.50;;;;;;5052831;28;20211;-39
2022/12/16 04:03:31;;;;;;;6.63;6.03;;;22.80;53.40;;;;;;5054127;28;20191;-38
2022/12/16 04:05:58;;;;;;;6.90;6.30;;;22.90;53.50;;;;;;5048841;28;20228;-39
2022/12/16 04:08:24;;;;;;;6.97;6.38;;;22.90;53.50;;;;;;5047564;28;20198;-37
2022/12/16 04:24:35;;;;;;;5.95;5.35;;;22.90;53.40;;;;;;5054029;28;20732;-33
2022/12/16 04:34:24;;;;;;;6.85;6.15;;;22.90;53.50;;;;;;5052525;28;20207;-38
